Time;durP1;ratioP1;P1;durP2;ratioP2;P2;SDS_P1;SDS_P2;PMS_P1;PMS_P2;Temp;Humidity;BMP_temperature;BMP_pressure;BME280_temperature;BME280_humidity;BME280_pressure;Samples;Min_cycle;Max_cycle;Signal;HPM_P1;HPM_P2
2022/01/20 00:00:51;;;;;;;10.32;4.82;;;;;;;-4.87;73.54;99139.31;5024922;28;20073;-81
2022/01/20 00:03:23;;;;;;;10.50;4.72;;;;;;;-4.84;73.77;99139.47;5005935;28;20054;-80
2022/01/20 00:08:36;;;;;;;;;;;;;;;-4.91;73.70;99139.97;5022640;28;20054;-80
2022/01/20 00:27:56;;;;;;;10.27;4.72;;;;;;;-4.75;73.80;99101.75;5037371;28;20053;-80
2022/01/20 00:38:17;;;;;;;12.95;4.57;;;;;;;-4.78;74.60;99097.34;5032548;28;20060;-78
2022/01/20 00:40:44;;;;;;;12.63;4.50;;;;;;;-4.74;74.03;99104.34;5019060;28;20035;-82
2022/01/20 00:43:11;;;;;;;9.30;4.10;;;;;;;-4.74;74.15;99093.28;5020605;28;20058;-81
2022/01/20 00:45:41;;;;;;;7.82;3.80;;;;;;;-4.76;74.15;99088.13;5019274;28;20088;-80
2022/01/20 00:48:08;;;;;;;10.68;4.53;;;;;;;-4.75;74.33;99087.34;5034073;28;20073;-82
2022/01/20 00:50:35;;;;;;;12.50;5.03;;;;;;;-4.75;74.35;99099.22;5035541;28;20053;-82
2022/01/20 00:53:04;;;;;;;9.60;4.65;;;;;;;-4.76;74.33;99097.44;5018702;28;20058;-79
2022/01/20 00:55:32;;;;;;;11.13;5.22;;;;;;;-4.77;74.55;99088.06;5035174;28;20062;-80
2022/01/20 00:58:05;;;;;;;11.27;4.70;;;;;;;-4.69;74.45;99101.16;5006801;28;20061;-81
2022/01/20 01:00:34;;;;;;;8.55;4.55;;;;;;;-4.60;74.68;99101.66;5003548;28;20048;-81
2022/01/20 01:03:01;;;;;;;10.50;4.93;;;;;;;-4.62;74.58;99109.22;5016968;28;20058;-80
2022/01/20 01:05:28;;;;;;;11.35;5.00;;;;;;;-4.54;75.02;99104.50;4996930;28;20141;-80
2022/01/20 01:07:57;;;;;;;11.85;5.47;;;;;;;-4.51;74.35;99085.97;4978325;28;20093;-80
2022/01/20 01:10:29;;;;;;;13.07;4.95;;;;;;;-4.36;74.61;99107.13;4979046;28;20084;-83
2022/01/20 01:13:08;;;;;;;11.07;5.30;;;;;;;-4.32;74.20;99109.91;4972643;28;20074;-81
2022/01/20 01:15:40;;;;;;;11.40;4.30;;;;;;;-4.30;74.71;99097.25;4977351;28;20054;-80
2022/01/20 01:23:36;;;;;;;14.00;5.22;;;;;;;-4.23;74.33;99089.09;4977596;28;20343;-81
2022/01/20 01:26:06;;;;;;;11.70;5.32;;;;;;;-4.18;74.50;99081.66;4995508;28;20057;-82
2022/01/20 01:28:36;;;;;;;13.35;5.85;;;;;;;-4.15;74.15;99080.13;4977805;28;20148;-83
2022/01/20 01:31:27;;;;;;;12.25;5.35;;;;;;;-4.14;74.24;99063.16;4977632;28;20070;-84
2022/01/20 01:33:58;;;;;;;10.00;5.18;;;;;;;-4.19;74.50;99065.47;4980135;28;20058;-79
2022/01/20 01:36:27;;;;;;;11.15;4.57;;;;;;;-4.19;74.61;99057.81;4994841;28;20050;-80
2022/01/20 01:38:55;;;;;;;9.50;5.18;;;;;;;-4.13;74.73;99076.00;4977940;28;20113;-80
2022/01/20 01:41:35;;;;;;;10.85;5.15;;;;;;;-4.09;74.49;99064.22;4994326;28;20053;-82
2022/01/20 01:44:07;;;;;;;14.27;5.28;;;;;;;-4.13;74.70;99044.47;4977617;28;20444;-83
2022/01/20 01:46:36;;;;;;;15.68;5.68;;;;;;;-4.16;74.65;99035.00;4977439;28;20054;-84
2022/01/20 01:49:05;;;;;;;14.52;5.38;;;;;;;-4.09;74.20;99051.47;4961684;28;20046;-82
2022/01/20 01:51:32;;;;;;;15.80;5.55;;;;;;;-4.05;74.69;99048.28;4995257;28;20082;-81
2022/01/20 01:53:59;;;;;;;16.17;6.90;;;;;;;-4.00;74.54;99054.50;4977670;28;20073;-83
2022/01/20 01:56:26;;;;;;;11.35;5.20;;;;;;;-3.94;74.52;99041.13;4977270;28;20101;-82
2022/01/20 01:58:54;;;;;;;11.00;4.95;;;;;;;-3.88;74.43;99048.22;4977285;28;20081;-86
2022/01/20 02:01:36;;;;;;;11.52;5.63;;;;;;;-4.00;74.67;99036.63;4971543;28;20153;-85
2022/01/20 02:04:16;;;;;;;13.80;5.75;;;;;;;-3.95;74.77;99044.50;4997424;28;20054;-87
2022/01/20 02:07:28;;;;;;;14.40;5.50;;;;;;;-3.96;74.66;99047.84;4998321;28;20050;-84
2022/01/20 02:20:34;;;;;;;14.70;5.88;;;;;;;-3.95;74.84;99034.28;5009448;28;20050;-82
2022/01/20 02:23:07;;;;;;;14.98;6.07;;;;;;;-3.86;74.78;99019.41;4994830;28;20050;-84
2022/01/20 02:25:36;;;;;;;10.50;4.85;;;;;;;-3.82;74.58;99023.00;5012171;28;20099;-83
2022/01/20 02:28:09;;;;;;;10.77;5.32;;;;;;;-3.83;74.99;99027.22;5012826;28;20057;-82
2022/01/20 02:30:39;;;;;;;8.32;4.20;;;;;;;-3.87;74.75;99017.69;5013960;28;20060;-80
2022/01/20 02:33:13;;;;;;;16.23;5.80;;;;;;;-3.87;74.88;99025.34;5013840;28;20045;-83
2022/01/20 02:35:45;;;;;;;15.25;6.15;;;;;;;-3.83;75.44;99031.44;4993088;28;20054;-83
2022/01/20 02:46:25;;;;;;;13.43;6.20;;;;;;;-3.66;74.84;99010.13;4995885;28;20050;-84
2022/01/20 02:48:52;;;;;;;12.63;5.60;;;;;;;-3.64;75.14;99002.53;4996013;28;20067;-85
2022/01/20 02:51:20;;;;;;;10.45;4.70;;;;;;;-3.57;74.75;99023.31;4996212;28;20107;-84
2022/01/20 02:53:47;;;;;;;12.60;5.43;;;;;;;-3.53;75.11;99011.56;5005359;28;20077;-78
2022/01/20 02:56:15;;;;;;;11.07;4.97;;;;;;;-3.42;74.74;99005.28;5028622;28;20116;-77
2022/01/20 02:58:41;;;;;;;12.10;5.30;;;;;;;-3.38;74.88;98978.19;5021233;28;20054;-76
2022/01/20 03:01:09;;;;;;;11.23;5.10;;;;;;;-3.40;74.55;99006.22;5024754;28;20523;-84
2022/01/20 03:03:36;;;;;;;12.75;4.82;;;;;;;-3.43;74.82;98980.53;5002149;28;20058;-81
2022/01/20 03:06:04;;;;;;;13.00;6.10;;;;;;;-3.41;74.89;98988.28;5001365;28;20088;-81
2022/01/20 03:08:33;;;;;;;12.75;4.95;;;;;;;-3.41;75.21;98978.91;5017474;28;20557;-80
2022/01/20 03:11:00;;;;;;;12.07;6.10;;;;;;;-3.33;75.08;98994.59;5025290;28;20113;-84
2022/01/20 03:13:27;;;;;;;13.93;5.60;;;;;;;-3.29;75.00;98978.59;4998651;28;20103;-80
2022/01/20 03:15:55;;;;;;;11.73;5.07;;;;;;;-3.31;74.74;98968.31;4998693;28;20096;-82
2022/01/20 03:18:22;;;;;;;11.07;5.55;;;;;;;-3.25;74.66;98965.13;4999334;28;20092;-83
2022/01/20 03:20:49;;;;;;;12.25;4.78;;;;;;;-3.22;74.72;98977.19;4998799;28;20057;-83
2022/01/20 03:23:16;;;;;;;13.93;5.07;;;;;;;-3.34;74.57;98977.50;4998836;28;20056;-84
2022/01/20 03:25:44;;;;;;;10.82;5.15;;;;;;;-3.39;75.07;98971.34;4998497;28;20060;-84
2022/01/20 03:28:11;;;;;;;11.60;5.05;;;;;;;-3.43;74.96;98959.22;4998384;28;20683;-82
2022/01/20 03:30:38;;;;;;;12.48;4.97;;;;;;;-3.48;75.09;98956.47;4999032;28;20054;-84
2022/01/20 03:33:06;;;;;;;13.63;5.13;;;;;;;-3.41;75.13;98952.50;4982721;28;20153;-81
2022/01/20 03:35:34;;;;;;;11.55;5.10;;;;;;;-3.45;74.92;98928.50;4998470;28;20045;-82
2022/01/20 03:38:36;;;;;;;9.15;4.80;;;;;;;-3.45;74.99;98956.59;5015441;28;20076;-83
2022/01/20 03:41:03;;;;;;;13.57;5.75;;;;;;;-3.46;74.74;98947.22;4998348;28;20061;-82
2022/01/20 03:43:30;;;;;;;9.98;4.97;;;;;;;-3.41;75.11;98955.06;4982682;28;20088;-81
2022/01/20 03:46:00;;;;;;;9.77;5.00;;;;;;;-3.40;75.38;98950.03;4999218;28;20161;-83
2022/01/20 03:48:29;;;;;;;11.95;5.05;;;;;;;-3.30;74.92;98961.50;4997985;28;20088;-82
2022/01/20 03:51:00;;;;;;;12.27;5.53;;;;;;;-3.31;74.87;98962.34;4999067;28;20057;-79
2022/01/20 03:53:38;;;;;;;11.45;5.05;;;;;;;-3.27;75.07;98960.78;5016651;28;20042;-81
2022/01/20 03:56:12;;;;;;;11.70;5.22;;;;;;;-3.29;74.69;98955.63;5012833;28;20054;-78
2022/01/20 03:58:51;;;;;;;10.45;4.95;;;;;;;-3.46;75.17;98941.19;4988573;28;20116;-82
2022/01/20 04:01:19;;;;;;;8.93;4.57;;;;;;;-3.37;75.06;98945.06;4974701;28;20089;-79
2022/01/20 04:04:07;;;;;;;13.15;5.13;;;;;;;-3.50;75.33;98930.88;5001860;28;20145;-78
2022/01/20 04:06:43;;;;;;;9.73;4.78;;;;;;;-3.42;75.53;98946.53;4984342;28;20057;-85
2022/01/20 04:09:10;;;;;;;10.48;4.95;;;;;;;-3.48;75.76;98919.84;4980981;28;20114;-81
2022/01/20 04:11:37;;;;;;;10.07;4.80;;;;;;;-3.40;75.41;98921.06;4983010;28;20054;-82
2022/01/20 04:14:04;;;;;;;9.65;4.60;;;;;;;-3.41;74.92;98935.50;4980604;28;20464;-84
2022/01/20 04:17:01;;;;;;;10.40;4.50;;;;;;;-3.44;75.02;98916.63;4978163;28;20088;-80
2022/01/20 04:19:32;;;;;;;9.38;4.47;;;;;;;-3.43;75.21;98919.25;4978398;28;20058;-84
2022/01/20 04:22:00;;;;;;;10.32;4.97;;;;;;;-3.42;75.61;98922.66;4978741;28;20141;-82
2022/01/20 04:24:29;;;;;;;11.48;5.35;;;;;;;-3.42;75.31;98931.22;4978848;28;20061;-83
2022/01/20 04:26:56;;;;;;;10.52;5.03;;;;;;;-3.51;75.46;98926.59;4995386;28;20055;-81
2022/01/20 04:29:24;;;;;;;10.90;5.30;;;;;;;-3.48;75.51;98935.16;4977990;28;20101;-82
2022/01/20 04:31:51;;;;;;;14.13;5.75;;;;;;;-3.44;75.60;98937.94;4995787;28;20508;-85
2022/01/20 04:34:19;;;;;;;13.50;5.72;;;;;;;-3.46;75.81;98926.78;4963534;28;20061;-82
2022/01/20 04:36:48;;;;;;;13.63;5.40;;;;;;;-3.49;75.59;98911.31;4995297;28;20073;-84
2022/01/20 04:39:19;;;;;;;10.50;5.53;;;;;;;-3.43;75.46;98919.25;4977484;28;20050;-84
2022/01/20 04:41:49;;;;;;;11.75;5.47;;;;;;;-3.48;75.86;98899.41;4994662;28;20148;-83
2022/01/20 04:44:36;;;;;;;10.13;5.40;;;;;;;-3.52;75.82;98896.72;4978219;28;20146;-85
2022/01/20 04:58:18;;;;;;;12.43;6.18;;;;;;;-3.43;75.90;98910.72;4962396;28;20050;-81
2022/01/20 05:00:47;;;;;;;11.88;5.60;;;;;;;-3.40;75.99;98906.63;4977556;28;20062;-87
2022/01/20 05:03:32;;;;;;;11.27;5.63;;;;;;;-3.47;76.35;98896.06;4995771;28;20135;-82
2022/01/20 05:06:12;;;;;;;13.98;6.22;;;;;;;-3.45;75.98;98908.09;4978220;28;20555;-82
2022/01/20 05:08:39;;;;;;;13.93;5.90;;;;;;;-3.43;76.21;98913.28;4979831;28;20856;-81
2022/01/20 05:11:09;;;;;;;13.43;6.53;;;;;;;-3.41;76.36;98917.63;4978370;28;20051;-86
2022/01/20 05:13:37;;;;;;;12.80;5.93;;;;;;;-3.41;76.02;98912.53;4976924;28;20062;-83
2022/01/20 05:16:05;;;;;;;13.48;6.55;;;;;;;-3.37;75.89;98911.84;4971593;28;20054;-77
2022/01/20 05:18:32;;;;;;;13.57;6.13;;;;;;;-3.36;76.21;98913.59;4978606;28;20059;-77
2022/01/20 05:21:00;;;;;;;15.18;5.93;;;;;;;-3.33;75.95;98923.09;4996954;28;20050;-79
2022/01/20 05:23:28;;;;;;;14.30;5.93;;;;;;;-3.36;75.96;98923.81;4996134;28;20054;-78
2022/01/20 05:25:57;;;;;;;14.15;6.10;;;;;;;-3.44;76.14;98914.97;4995824;28;20050;-79
2022/01/20 05:28:25;;;;;;;13.60;6.35;;;;;;;-3.44;76.59;98909.84;4990905;28;20086;-81
2022/01/20 05:30:52;;;;;;;14.32;6.95;;;;;;;-3.45;76.18;98900.44;5004525;28;20161;-84
2022/01/20 05:33:35;;;;;;;15.07;6.75;;;;;;;-3.46;76.10;98902.91;5001756;28;20531;-80
2022/01/20 05:36:02;;;;;;;17.73;6.80;;;;;;;-3.47;76.57;98896.06;5006179;28;20050;-80
2022/01/20 05:38:29;;;;;;;15.13;6.38;;;;;;;-3.53;76.62;98894.09;4982469;28;20484;-84
2022/01/20 05:40:56;;;;;;;13.23;5.85;;;;;;;-3.50;76.60;98890.00;4980223;28;20058;-81
2022/01/20 05:43:25;;;;;;;16.60;7.20;;;;;;;-3.47;76.46;98885.84;4980267;28;20060;-79
2022/01/20 05:45:53;;;;;;;13.23;6.22;;;;;;;-3.42;76.67;98886.91;4976272;28;20591;-81
2022/01/20 05:48:32;;;;;;;17.10;7.07;;;;;;;-3.48;76.54;98886.63;4977653;28;20059;-78
2022/01/20 05:51:18;;;;;;;15.85;6.78;;;;;;;-3.55;76.89;98891.50;4985587;28;20053;-78
2022/01/20 05:53:45;;;;;;;16.42;6.93;;;;;;;-3.47;76.81;98896.06;4997724;28;20030;-77
2022/01/20 05:56:14;;;;;;;14.75;7.13;;;;;;;-3.50;76.65;98894.25;5005605;28;20046;-80
2022/01/20 05:58:41;;;;;;;15.27;7.32;;;;;;;-3.49;76.77;98888.34;4997360;28;20066;-78
2022/01/20 06:01:11;;;;;;;15.40;6.40;;;;;;;-3.50;76.98;98886.59;4991924;28;20058;-76
2022/01/20 06:03:39;;;;;;;13.38;6.30;;;;;;;-3.50;76.92;98877.25;5012101;28;20050;-80
2022/01/20 06:06:13;;;;;;;14.10;6.82;;;;;;;-3.53;77.56;98866.03;5000543;28;20058;-78
2022/01/20 06:08:41;;;;;;;17.63;7.28;;;;;;;-3.47;77.28;98876.50;5001908;28;20496;-82
2022/01/20 06:11:09;;;;;;;16.98;7.00;;;;;;;-3.46;77.45;98864.59;4985230;28;20149;-78
2022/01/20 06:13:37;;;;;;;14.30;6.70;;;;;;;-3.39;77.11;98870.06;5001795;28;20058;-82
2022/01/20 06:16:05;;;;;;;17.08;6.72;;;;;;;-3.38;77.31;98860.69;4978321;28;20058;-82
2022/01/20 06:18:32;;;;;;;15.57;6.45;;;;;;;-3.50;77.16;98845.75;4978220;28;20050;-79
2022/01/20 06:21:01;;;;;;;16.40;7.00;;;;;;;-3.41;77.28;98855.47;4994217;28;20093;-79
2022/01/20 06:23:28;;;;;;;14.75;6.85;;;;;;;-3.42;77.36;98844.41;4995090;28;20046;-82
2022/01/20 06:25:56;;;;;;;15.10;6.75;;;;;;;-3.52;77.17;98827.78;4995332;28;20116;-81
2022/01/20 06:28:25;;;;;;;17.50;7.40;;;;;;;-3.41;77.32;98855.47;4993838;28;20058;-77
2022/01/20 06:30:53;;;;;;;14.82;6.72;;;;;;;-3.34;77.45;98844.69;5000578;28;20054;-79
2022/01/20 06:33:20;;;;;;;15.65;6.55;;;;;;;-3.30;77.46;98855.09;5002116;28;20065;-80
2022/01/20 06:35:53;;;;;;;14.65;7.53;;;;;;;-3.25;77.19;98852.75;4990049;28;20432;-80
2022/01/20 06:38:22;;;;;;;14.27;6.55;;;;;;;-3.30;77.20;98838.91;5004539;28;20069;-77
2022/01/20 06:40:50;;;;;;;16.35;6.68;;;;;;;-3.28;77.20;98841.53;5005034;28;20061;-79
2022/01/20 06:43:18;;;;;;;17.27;7.00;;;;;;;-3.31;77.41;98849.97;5001062;28;20085;-78
2022/01/20 06:45:45;;;;;;;17.35;7.95;;;;;;;-3.34;77.50;98862.59;4984981;28;20112;-80
2022/01/20 06:48:18;;;;;;;15.27;7.35;;;;;;;-3.25;77.68;98862.09;4994900;28;20055;-79
2022/01/20 06:51:08;;;;;;;16.40;7.45;;;;;;;-3.23;77.48;98852.81;4997918;28;20055;-88
2022/01/20 06:53:35;;;;;;;15.27;6.78;;;;;;;-3.11;77.42;98858.44;5003648;28;20145;-85
2022/01/20 06:56:02;;;;;;;16.80;7.68;;;;;;;-3.03;77.12;98863.84;4982329;28;20061;-85
2022/01/20 06:58:29;;;;;;;15.23;7.15;;;;;;;-2.99;76.93;98850.38;4997686;28;20061;-86
2022/01/20 07:00:56;;;;;;;18.83;7.33;;;;;;;-2.99;76.77;98848.72;4968162;28;1111221;-83
2022/01/20 07:03:26;;;;;;;18.92;8.00;;;;;;;-3.14;76.93;98830.19;5015608;28;20304;-81
2022/01/20 07:05:54;;;;;;;16.10;6.75;;;;;;;-3.10;76.94;98858.50;5018315;28;20093;-83
2022/01/20 07:08:23;;;;;;;16.42;7.28;;;;;;;-3.15;77.34;98857.44;5021727;28;20050;-84
2022/01/20 07:10:50;;;;;;;15.20;7.32;;;;;;;-3.23;77.06;98819.59;5008198;28;20439;-83
2022/01/20 07:13:18;;;;;;;16.75;6.93;;;;;;;-3.22;76.85;98829.91;4998639;28;20511;-82
2022/01/20 07:15:46;;;;;;;17.10;7.95;;;;;;;-3.12;77.56;98844.81;5016007;28;20060;-82
2022/01/20 07:18:13;;;;;;;12.90;5.50;;;;;;;-3.09;77.11;98854.28;4982173;28;20046;-84
2022/01/20 07:20:40;;;;;;;16.90;7.35;;;;;;;-3.13;77.39;98850.69;4999188;28;20069;-83
2022/01/20 07:23:13;;;;;;;16.17;7.00;;;;;;;-3.03;77.29;98844.31;4998826;28;20061;-84
2022/01/20 07:25:53;;;;;;;16.85;7.20;;;;;;;-2.89;77.07;98842.28;4998191;28;20140;-82
2022/01/20 07:28:21;;;;;;;14.40;6.43;;;;;;;-3.20;76.85;98771.22;4987873;28;20415;-82
2022/01/20 07:30:48;;;;;;;16.85;6.95;;;;;;;-3.05;76.92;98801.59;5005580;28;20046;-81
2022/01/20 07:33:16;;;;;;;15.48;6.65;;;;;;;-3.01;77.16;98813.69;5000766;28;20073;-84
2022/01/20 07:35:44;;;;;;;16.23;7.03;;;;;;;-3.00;77.27;98826.53;5004571;28;20058;-83
2022/01/20 07:38:13;;;;;;;15.32;7.03;;;;;;;-3.01;77.19;98831.56;5003168;28;20428;-83
2022/01/20 07:40:42;;;;;;;16.95;7.50;;;;;;;-3.00;77.20;98836.75;5010403;28;20504;-82
2022/01/20 07:43:09;;;;;;;17.02;7.45;;;;;;;-2.93;77.28;98835.31;5013428;28;20129;-83
2022/01/20 07:45:45;;;;;;;14.63;6.80;;;;;;;-2.93;76.89;98819.97;4979021;28;20136;-82
2022/01/20 07:48:26;;;;;;;16.88;7.00;;;;;;;-3.01;77.16;98817.13;5033611;28;20050;-86
2022/01/20 07:51:09;;;;;;;20.15;7.15;;;;;;;-2.88;76.90;98844.06;5031815;28;20056;-84
2022/01/20 07:53:38;;;;;;;17.30;7.30;;;;;;;-2.91;77.06;98839.66;4987804;28;20508;-88
2022/01/20 07:56:06;;;;;;;20.25;8.20;;;;;;;-2.86;77.07;98851.75;4998654;28;20419;-84
2022/01/20 07:58:34;;;;;;;24.75;9.00;;;;;;;-2.83;76.88;98850.22;4997938;28;20397;-84
2022/01/20 08:01:04;;;;;;;28.88;11.07;;;;;;;-2.78;76.85;98837.63;5015341;28;20061;-84
2022/01/20 08:03:36;;;;;;;32.03;12.60;;;;;;;-2.77;76.90;98840.25;4997839;28;20587;-84
2022/01/20 08:06:08;;;;;;;28.92;12.80;;;;;;;-2.68;76.95;98840.59;4981638;28;20128;-83
2022/01/20 08:08:39;;;;;;;27.83;13.25;;;;;;;-2.62;76.54;98839.97;4997322;28;20479;-82
2022/01/20 08:11:24;;;;;;;51.58;16.35;;;;;;;-2.63;76.64;98840.78;5015084;28;20061;-83
2022/01/20 08:14:00;;;;;;;19.85;8.75;;;;;;;-2.66;76.67;98843.22;5003355;28;20422;-84
2022/01/20 08:16:28;;;;;;;22.85;10.38;;;;;;;-2.70;76.83;98824.31;4996466;28;20045;-83
2022/01/20 08:18:55;;;;;;;22.17;9.93;;;;;;;-2.69;76.55;98827.75;5007673;28;20140;-82
2022/01/20 08:21:23;;;;;;;22.13;9.88;;;;;;;-2.72;76.66;98812.28;5010441;28;20050;-81
2022/01/20 08:23:52;;;;;;;25.48;10.63;;;;;;;-2.63;76.16;98833.09;4982926;28;20053;-82
2022/01/20 08:26:19;;;;;;;112.20;17.02;;;;;;;-2.63;76.49;98835.66;4993819;28;20476;-82
2022/01/20 08:28:46;;;;;;;22.05;9.38;;;;;;;-2.64;76.49;98828.81;4979069;28;20469;-86
2022/01/20 08:31:13;;;;;;;25.90;9.50;;;;;;;-2.63;76.58;98840.78;5010498;28;20054;-85
2022/01/20 08:33:40;;;;;;;111.68;15.95;;;;;;;-2.52;76.34;98818.16;5000556;28;20054;-84
2022/01/20 08:36:14;;;;;;;16.35;6.82;;;;;;;-2.78;76.07;98773.72;4985034;28;20081;-84
2022/01/20 08:38:53;;;;;;;13.88;7.03;;;;;;;-2.64;76.00;98807.50;4988859;28;20054;-85
2022/01/20 08:41:23;;;;;;;17.88;7.35;;;;;;;-2.65;76.11;98808.28;5009574;28;20073;-82
2022/01/20 08:43:50;;;;;;;15.02;7.10;;;;;;;-2.62;76.39;98793.94;4988542;28;20132;-84
2022/01/20 08:46:20;;;;;;;16.67;7.68;;;;;;;-2.62;76.02;98787.97;4981978;28;20129;-84
2022/01/20 08:48:48;;;;;;;17.63;7.22;;;;;;;-2.70;76.13;98780.84;5003110;28;20049;-83
2022/01/20 08:51:15;;;;;;;18.98;8.50;;;;;;;-2.65;76.10;98775.91;4968540;28;20051;-83
2022/01/20 08:54:03;;;;;;;21.25;9.50;;;;;;;-2.73;75.93;98762.84;4986769;28;20070;-86
2022/01/20 08:56:35;;;;;;;31.45;9.50;;;;;;;-2.72;76.31;98744.13;4976617;28;20128;-79
2022/01/20 08:59:05;;;;;;;17.00;7.93;;;;;;;-2.66;76.16;98746.06;4993337;28;20054;-84
2022/01/20 09:01:33;;;;;;;16.92;6.80;;;;;;;-2.44;75.84;98780.97;4998322;28;20061;-83
2022/01/20 09:04:01;;;;;;;13.80;6.88;;;;;;;-2.39;75.37;98788.81;4997839;28;20057;-86
2022/01/20 09:06:29;;;;;;;13.40;6.32;;;;;;;-2.38;75.70;98783.78;4993999;28;20058;-86
2022/01/20 09:09:10;;;;;;;15.05;6.88;;;;;;;-2.49;75.56;98775.69;4996286;28;20050;-84
2022/01/20 09:12:02;;;;;;;23.45;7.60;;;;;;;-2.38;75.70;98770.13;4982651;28;20055;-86
2022/01/20 09:17:17;;;;;;;12.80;6.15;;;;;;;-2.48;75.42;98739.06;5001925;28;20072;-85
2022/01/20 09:19:45;;;;;;;14.13;6.47;;;;;;;-2.48;75.35;98743.31;4966114;28;20527;-87
2022/01/20 09:22:13;;;;;;;14.25;6.88;;;;;;;-2.56;75.28;98750.72;4996676;28;20048;-84
2022/01/20 09:24:42;;;;;;;16.08;6.78;;;;;;;-2.51;75.45;98753.44;4985772;28;20057;-86
2022/01/20 09:27:09;;;;;;;14.70;6.35;;;;;;;-2.47;75.01;98750.19;4996072;28;20408;-86
2022/01/20 09:29:37;;;;;;;14.73;6.50;;;;;;;-2.49;74.95;98737.34;4996163;28;20068;-83
2022/01/20 09:32:09;;;;;;;14.95;6.90;;;;;;;-2.54;75.54;98737.97;4995944;28;20054;-85
2022/01/20 09:34:36;;;;;;;15.20;7.22;;;;;;;-2.44;75.13;98718.72;5010372;28;20104;-86
2022/01/20 09:37:12;;;;;;;14.23;5.72;;;;;;;-2.33;75.01;98743.88;5006076;28;20105;-83
2022/01/20 09:39:45;;;;;;;16.05;7.05;;;;;;;-2.39;75.22;98737.66;4996641;28;20056;-85
2022/01/20 09:42:36;;;;;;;16.42;7.20;;;;;;;-2.46;75.30;98746.81;4970265;28;20584;-84
2022/01/20 09:45:08;;;;;;;13.82;5.97;;;;;;;-2.42;75.22;98723.09;4996210;28;20053;-85
2022/01/20 09:47:37;;;;;;;14.95;6.80;;;;;;;-2.50;75.21;98714.25;5012272;28;20057;-83
2022/01/20 09:50:30;;;;;;;13.85;6.50;;;;;;;-2.62;75.00;98701.91;5016158;28;20058;-82
2022/01/20 09:53:21;;;;;;;12.48;6.03;;;;;;;-2.69;75.34;98700.81;5013738;28;20042;-86
2022/01/20 09:56:02;;;;;;;13.93;7.03;;;;;;;-2.63;75.40;98700.16;4983326;28;20114;-84
2022/01/20 09:58:36;;;;;;;11.98;6.18;;;;;;;-2.61;75.17;98706.19;4990885;28;20058;-84
2022/01/20 10:01:03;;;;;;;12.68;6.82;;;;;;;-2.51;75.10;98704.84;4990087;28;20054;-83
2022/01/20 10:03:34;;;;;;;17.85;7.55;;;;;;;-2.50;75.25;98721.94;4995879;28;20077;-86
2022/01/20 10:06:01;;;;;;;14.03;6.60;;;;;;;-2.51;75.14;98704.84;4977823;28;20054;-85
2022/01/20 10:08:35;;;;;;;14.73;7.68;;;;;;;-2.51;75.57;98717.63;4997079;28;20376;-81
2022/01/20 10:11:17;;;;;;;11.02;5.65;;;;;;;-2.44;74.83;98701.69;4999102;28;20146;-84
2022/01/20 10:14:02;;;;;;;13.27;6.63;;;;;;;-2.48;75.05;98703.25;4998730;28;20057;-84
2022/01/20 10:17:12;;;;;;;16.77;6.63;;;;;;;-2.50;75.58;98694.66;4995736;28;20050;-83
2022/01/20 10:19:41;;;;;;;12.98;6.65;;;;;;;-2.52;74.87;98695.41;5014515;28;20050;-83
2022/01/20 10:22:23;;;;;;;13.93;6.95;;;;;;;-2.54;75.18;98679.16;5003966;28;20049;-82
2022/01/20 10:25:13;;;;;;;17.92;7.10;;;;;;;-2.52;75.16;98698.88;5014997;28;20056;-82
2022/01/20 10:28:00;;;;;;;16.98;7.10;;;;;;;-2.54;75.32;98708.19;4999880;28;20427;-82
2022/01/20 10:30:30;;;;;;;13.65;7.05;;;;;;;-2.51;75.08;98686.94;5014603;28;20041;-81
2022/01/20 10:33:00;;;;;;;13.55;6.05;;;;;;;-2.55;75.36;98683.41;4980420;28;20086;-83
2022/01/20 10:35:36;;;;;;;15.82;6.95;;;;;;;-2.55;75.21;98656.97;5002560;28;20404;-81
2022/01/20 10:38:12;;;;;;;13.38;6.70;;;;;;;-2.37;75.04;98701.09;5000209;28;20104;-79
2022/01/20 10:40:54;;;;;;;13.38;6.18;;;;;;;-2.34;74.80;98683.31;4995354;28;20058;-88
2022/01/20 10:43:34;;;;;;;13.88;6.78;;;;;;;-2.39;74.88;98671.16;4992873;28;20049;-79
2022/01/20 10:46:16;;;;;;;15.20;6.05;;;;;;;-2.45;75.06;98678.59;5009011;28;20503;-82
2022/01/20 10:48:57;;;;;;;14.68;7.07;;;;;;;-2.41;74.93;98680.47;5015401;28;20475;-80
2022/01/20 10:51:27;;;;;;;18.90;6.95;;;;;;;-2.35;75.02;98673.88;5016677;28;20045;-81
2022/01/20 10:54:11;;;;;;;14.00;6.80;;;;;;;-2.40;74.72;98670.28;5012971;28;20486;-82
2022/01/20 10:56:59;;;;;;;13.32;6.45;;;;;;;-2.45;74.82;98671.84;5006803;28;20046;-82
2022/01/20 10:59:27;;;;;;;17.42;6.63;;;;;;;-2.43;75.36;98665.09;4983052;28;20483;-82
2022/01/20 11:01:58;;;;;;;15.30;6.38;;;;;;;-2.37;75.05;98680.63;4981089;28;20065;-82
2022/01/20 11:04:26;;;;;;;13.18;6.65;;;;;;;-2.42;74.98;98663.41;4998072;28;20054;-83
2022/01/20 11:06:56;;;;;;;18.55;8.35;;;;;;;-2.33;75.05;98667.13;5013950;28;20463;-81
2022/01/20 11:09:33;;;;;;;14.20;6.90;;;;;;;-2.50;74.97;98651.19;5004709;28;20061;-80
2022/01/20 11:12:24;;;;;;;15.98;7.13;;;;;;;-2.45;75.26;98661.59;4986794;28;20062;-81
2022/01/20 11:15:07;;;;;;;16.98;6.88;;;;;;;-2.34;75.21;98661.97;4997492;28;20081;-83
2022/01/20 11:17:37;;;;;;;14.77;6.65;;;;;;;-2.51;74.85;98630.69;4997094;28;20415;-83
2022/01/20 11:20:10;;;;;;;18.65;7.05;;;;;;;-2.38;75.13;98655.03;4996903;28;20053;-81
2022/01/20 11:22:49;;;;;;;14.55;6.47;;;;;;;-2.39;75.16;98648.16;5014579;28;20054;-83
2022/01/20 11:25:19;;;;;;;;;;;;;;;-2.57;75.14;98667.13;4997488;28;20050;-82
2022/01/20 11:28:07;;;;;;;15.18;7.18;;;;;;;-2.55;75.32;98646.75;5013537;28;19932;-80
2022/01/20 11:31:03;;;;;;;13.00;6.78;;;;;;;-2.56;75.67;98638.22;4996861;28;20053;-80
2022/01/20 11:34:01;;;;;;;16.95;7.53;;;;;;;-2.51;75.44;98656.28;4994715;28;20728;-82
2022/01/20 11:36:31;;;;;;;16.20;7.45;;;;;;;-2.51;75.10;98651.16;5013602;28;20060;-82
2022/01/20 11:39:23;;;;;;;14.25;6.38;;;;;;;-2.59;75.09;98635.53;5014763;28;20058;-82
2022/01/20 11:41:52;;;;;;;18.13;7.75;;;;;;;-2.46;75.30;98654.72;5014280;28;20439;-83
2022/01/20 11:44:24;;;;;;;15.20;6.43;;;;;;;-2.41;75.08;98655.78;5006670;28;20137;-83
2022/01/20 11:46:53;;;;;;;17.58;7.18;;;;;;;-2.46;75.79;98659.84;4995181;28;20085;-83
2022/01/20 11:49:21;;;;;;;17.63;7.40;;;;;;;-2.51;75.43;98654.56;4995009;28;20054;-83
2022/01/20 11:51:55;;;;;;;14.80;6.18;;;;;;;-2.52;75.22;98652.84;4994447;28;20145;-82
2022/01/20 11:54:31;;;;;;;16.30;7.50;;;;;;;-2.54;75.72;98681.72;4994534;28;20080;-81
2022/01/20 11:57:10;;;;;;;16.92;7.25;;;;;;;-2.52;75.22;98659.63;4976902;28;20560;-81
2022/01/20 11:59:40;;;;;;;18.80;7.70;;;;;;;-2.68;75.71;98643.72;4994829;28;20420;-80
2022/01/20 12:02:08;;;;;;;15.95;7.57;;;;;;;-2.63;75.81;98658.38;4974784;28;20489;-80
2022/01/20 12:04:40;;;;;;;11.43;6.60;;;;;;;-2.60;75.69;98638.00;4974813;28;20518;-81
2022/01/20 12:07:25;;;;;;;15.65;7.45;;;;;;;-2.63;75.68;98643.03;4967037;28;20054;-80
2022/01/20 12:10:07;;;;;;;14.32;7.50;;;;;;;-2.62;75.44;98655.03;4989151;28;20054;-79
2022/01/20 12:12:34;;;;;;;18.95;8.90;;;;;;;-2.78;75.86;98649.31;4990955;28;20504;-79
2022/01/20 12:15:17;;;;;;;14.93;7.43;;;;;;;-2.92;75.74;98630.94;4994352;28;20051;-82
2022/01/20 12:17:54;;;;;;;16.23;7.25;;;;;;;-2.59;75.93;98657.66;4993683;28;20053;-82
2022/01/20 12:20:22;;;;;;;18.20;7.38;;;;;;;-2.76;75.59;98627.25;4994418;28;20050;-81
2022/01/20 12:22:51;;;;;;;16.65;8.20;;;;;;;-2.58;75.57;98654.28;4995097;28;20050;-80
2022/01/20 12:25:21;;;;;;;21.15;7.85;;;;;;;-2.71;75.49;98637.63;4994814;28;20428;-81
2022/01/20 12:27:48;;;;;;;16.30;7.13;;;;;;;-2.56;75.68;98647.53;4994236;28;20054;-80
2022/01/20 12:30:21;;;;;;;14.35;7.57;;;;;;;-2.55;75.47;98660.38;4992848;28;20389;-82
2022/01/20 12:33:06;;;;;;;18.55;7.72;;;;;;;-2.63;75.66;98641.34;4994398;28;20046;-81
2022/01/20 12:35:40;;;;;;;17.88;8.05;;;;;;;-2.57;75.72;98645.81;4974468;28;20050;-84
2022/01/20 12:38:30;;;;;;;16.10;7.45;;;;;;;-2.69;75.78;98631.78;4994429;28;20463;-81
2022/01/20 12:41:22;;;;;;;17.90;7.10;;;;;;;-2.63;75.77;98640.47;4978193;28;20488;-81
2022/01/20 12:44:07;;;;;;;16.33;7.40;;;;;;;-2.60;76.13;98650.78;5000436;28;20281;-81
2022/01/20 12:46:37;;;;;;;16.60;7.38;;;;;;;-2.61;75.64;98638.84;4994793;28;20133;-80
2022/01/20 12:49:08;;;;;;;15.07;6.95;;;;;;;-2.60;75.84;98626.13;4995321;28;20126;-83
2022/01/20 12:51:40;;;;;;;15.68;7.05;;;;;;;-2.71;75.90;98619.72;4997785;28;20073;-79
2022/01/20 12:54:17;;;;;;;13.00;6.28;;;;;;;-2.62;75.91;98622.63;4998259;28;20563;-81
2022/01/20 12:56:50;;;;;;;11.02;5.43;;;;;;;-2.62;75.38;98637.97;4961646;28;20031;-82